createdAt,value
2018-11-04T00:01:09.429Z,13.27
2018-11-04T00:03:43.760Z,12.33
2018-11-04T00:06:18.731Z,12.20
2018-11-04T00:08:54.216Z,12.33
2018-11-04T00:11:28.700Z,13.27
2018-11-04T00:14:04.580Z,13.90
2018-11-04T00:16:39.620Z,12.47
2018-11-04T00:19:14.906Z,12.73
2018-11-04T00:21:50.346Z,12.03
2018-11-04T00:24:25.517Z,13.00
2018-11-04T00:27:00.500Z,14.13
2018-11-04T00:29:35.684Z,12.50
2018-11-04T00:32:10.204Z,14.90
2018-11-04T00:34:45.247Z,13.50
2018-11-04T00:37:19.699Z,13.30
2018-11-04T00:39:54.909Z,13.50
2018-11-04T00:42:30.633Z,14.13
2018-11-04T00:45:07.345Z,14.67
2018-11-04T00:47:41.706Z,13.00
2018-11-04T00:50:21.690Z,14.40
2018-11-04T00:52:56.028Z,12.30
2018-11-04T00:55:30.415Z,12.87
2018-11-04T00:58:04.713Z,14.20
2018-11-04T01:00:39.032Z,13.67
2018-11-04T01:03:24.623Z,14.00
2018-11-04T01:05:59.604Z,12.73
2018-11-04T01:08:34.835Z,12.07
2018-11-04T01:11:09.199Z,13.80
2018-11-04T01:13:44.233Z,13.33
2018-11-04T01:16:19.250Z,15.50
2018-11-04T01:18:53.664Z,14.23
2018-11-04T01:21:28.084Z,12.70
2018-11-04T01:24:03.735Z,14.43
2018-11-04T01:26:38.064Z,13.47
2018-11-04T01:29:13.125Z,12.77
2018-11-04T01:31:47.527Z,12.60
2018-11-04T01:34:22.037Z,13.63
2018-11-04T01:36:56.563Z,11.67
2018-11-04T01:39:32.068Z,12.13
2018-11-04T01:42:07.407Z,13.80
2018-11-04T01:44:42.007Z,13.40
2018-11-04T01:47:17.243Z,12.87
2018-11-04T01:49:51.789Z,12.80
2018-11-04T01:52:26.752Z,12.77
2018-11-04T01:55:01.887Z,11.77
2018-11-04T01:57:36.356Z,12.60
2018-11-04T02:00:13.419Z,11.87
2018-11-04T02:02:48.299Z,12.30
2018-11-04T02:05:23.566Z,11.60
2018-11-04T02:07:57.883Z,11.10
2018-11-04T02:10:32.743Z,11.70
2018-11-04T02:13:07.801Z,11.23
2018-11-04T02:15:43.544Z,11.90
2018-11-04T02:18:18.783Z,12.20
2018-11-04T02:20:53.259Z,11.73
2018-11-04T02:23:28.607Z,12.63
2018-11-04T02:26:03.036Z,11.03
2018-11-04T02:28:38.192Z,13.63
2018-11-04T02:31:12.701Z,11.10
2018-11-04T02:33:47.153Z,12.20
2018-11-04T02:36:22.559Z,11.57
2018-11-04T02:38:57.488Z,11.17
2018-11-04T02:41:32.380Z,11.50
2018-11-04T02:44:07.399Z,11.83
2018-11-04T02:46:42.635Z,10.80
2018-11-04T02:49:17.067Z,11.67
2018-11-04T02:51:52.016Z,11.67
2018-11-04T02:54:26.579Z,10.77
2018-11-04T02:57:01.206Z,11.23
2018-11-04T02:59:35.701Z,11.13
2018-11-04T03:02:10.946Z,10.70
2018-11-04T03:04:46.065Z,12.57
2018-11-04T03:07:21.238Z,11.63
2018-11-04T03:09:56.303Z,10.17
2018-11-04T03:12:30.684Z,9.90
2018-11-04T03:15:05.185Z,10.83
2018-11-04T03:17:40.210Z,10.60
2018-11-04T03:20:14.571Z,10.57
2018-11-04T03:22:50.156Z,9.97
2018-11-04T03:25:24.591Z,10.07
2018-11-04T03:27:59.783Z,10.10
2018-11-04T03:30:34.247Z,9.40
2018-11-04T03:33:09.307Z,10.67
2018-11-04T03:35:43.867Z,10.87
2018-11-04T03:38:18.342Z,9.50
2018-11-04T03:40:52.734Z,8.90
2018-11-04T03:43:27.712Z,9.53
2018-11-04T03:46:02.277Z,9.90
2018-11-04T03:48:37.628Z,8.70
2018-11-04T03:51:14.487Z,10.23
2018-11-04T03:53:48.884Z,10.27
2018-11-04T03:56:23.243Z,9.73
2018-11-04T03:58:57.759Z,9.57
2018-11-04T04:01:32.327Z,10.17
2018-11-04T04:04:07.632Z,10.47
2018-11-04T04:06:42.788Z,8.47
2018-11-04T04:09:17.939Z,8.27
2018-11-04T04:11:52.481Z,10.27
2018-11-04T04:14:26.807Z,9.93
2018-11-04T04:17:01.739Z,10.10
2018-11-04T04:19:36.063Z,9.90
2018-11-04T04:22:10.513Z,9.33
2018-11-04T04:24:45.672Z,9.37
2018-11-04T04:27:20.155Z,8.90
2018-11-04T04:29:55.460Z,10.30
2018-11-04T04:32:30.154Z,8.67
2018-11-04T04:35:05.126Z,9.33
2018-11-04T04:37:40.847Z,9.53
2018-11-04T04:40:16.139Z,9.03
2018-11-04T04:42:51.222Z,9.63
2018-11-04T04:45:25.580Z,8.50
2018-11-04T04:48:00.759Z,9.30
2018-11-04T04:50:36.200Z,8.80
2018-11-04T04:53:10.935Z,9.10
2018-11-04T04:55:45.468Z,9.10
2018-11-04T04:58:21.120Z,9.80
2018-11-04T05:00:55.644Z,7.90
2018-11-04T05:03:30.146Z,8.50
2018-11-04T05:06:05.677Z,7.70
2018-11-04T05:08:41.068Z,7.27
2018-11-04T05:11:17.750Z,8.80
2018-11-04T05:13:53.400Z,9.17
2018-11-04T05:16:28.631Z,9.03
2018-11-04T05:19:03.811Z,7.73
2018-11-04T05:21:38.084Z,7.13
2018-11-04T05:24:13.259Z,7.10
2018-11-04T05:26:47.758Z,8.47
2018-11-04T05:29:22.702Z,7.17
2018-11-04T05:31:57.649Z,6.40
2018-11-04T05:34:32.366Z,6.43
2018-11-04T05:37:06.844Z,7.23
2018-11-04T05:39:41.200Z,7.63
2018-11-04T05:42:16.931Z,6.70
2018-11-04T05:44:51.291Z,6.40
2018-11-04T05:47:26.263Z,6.90
2018-11-04T05:50:01.427Z,7.30
2018-11-04T05:52:36.816Z,5.73
2018-11-04T05:55:11.325Z,6.07
2018-11-04T05:57:46.463Z,6.00
2018-11-04T06:00:20.814Z,6.00
2018-11-04T06:02:55.391Z,7.20
2018-11-04T06:05:30.863Z,6.33
2018-11-04T06:08:05.835Z,6.37
2018-11-04T06:10:40.868Z,7.60
2018-11-04T06:13:15.407Z,6.60
2018-11-04T06:15:50.855Z,6.23
2018-11-04T06:18:26.627Z,6.67
2018-11-04T06:21:02.059Z,7.40
2018-11-04T06:23:37.227Z,6.53
2018-11-04T06:26:11.803Z,6.27
2018-11-04T06:28:46.933Z,7.40
2018-11-04T06:31:22.119Z,5.97
2018-11-04T06:33:56.523Z,6.40
2018-11-04T06:36:30.980Z,6.97
2018-11-04T06:39:07.212Z,6.77
2018-11-04T06:41:41.583Z,6.17
2018-11-04T06:44:16.779Z,5.47
2018-11-04T06:46:52.168Z,6.33
2018-11-04T06:49:26.935Z,6.40
2018-11-04T06:52:01.331Z,6.50
2018-11-04T06:54:35.852Z,6.10
2018-11-04T06:57:10.839Z,6.70
2018-11-04T06:59:45.530Z,6.57
2018-11-04T07:02:19.956Z,6.13
2018-11-04T07:04:55.223Z,6.47
2018-11-04T07:07:29.994Z,6.07
2018-11-04T07:10:08.296Z,5.97
2018-11-04T07:12:50.909Z,7.00
2018-11-04T07:15:25.968Z,5.87
2018-11-04T07:18:01.551Z,6.30
2018-11-04T07:20:42.131Z,5.80
2018-11-04T07:23:17.739Z,5.23
2018-11-04T07:25:52.212Z,5.53
2018-11-04T07:34:33.870Z,5.60
2018-11-04T07:37:08.628Z,5.30
2018-11-04T07:39:43.950Z,6.00
2018-11-04T07:42:20.101Z,6.40
2018-11-04T07:44:57.324Z,5.33
2018-11-04T07:47:33.112Z,5.90
2018-11-04T07:50:13.658Z,6.07
2018-11-04T07:52:50.673Z,5.30
2018-11-04T07:55:25.727Z,6.07
2018-11-04T07:58:00.601Z,5.70
2018-11-04T08:00:42.444Z,5.70
2018-11-04T08:03:17.412Z,5.60
2018-11-04T08:05:54.504Z,5.57
2018-11-04T08:08:30.792Z,5.50
2018-11-04T08:11:05.851Z,5.57
2018-11-04T08:13:40.534Z,6.13
2018-11-04T08:16:15.738Z,5.43
2018-11-04T08:18:51.238Z,6.63
2018-11-04T08:21:26.780Z,5.97
2018-11-04T08:24:02.306Z,5.10
2018-11-04T08:26:37.439Z,5.80
2018-11-04T08:29:12.457Z,6.57
2018-11-04T08:31:47.589Z,7.10
2018-11-04T08:34:22.275Z,6.27
2018-11-04T08:36:56.715Z,5.30
2018-11-04T08:39:32.091Z,5.50
2018-11-04T08:42:07.492Z,5.20
2018-11-04T08:44:42.048Z,4.40
2018-11-04T08:47:17.836Z,6.20
2018-11-04T08:49:52.864Z,5.40
2018-11-04T08:52:27.580Z,5.40
2018-11-04T08:55:02.598Z,5.97
2018-11-04T08:59:02.105Z,6.20
2018-11-04T09:01:36.522Z,5.70
2018-11-04T09:04:11.875Z,4.40
2018-11-04T09:06:47.206Z,5.00
2018-11-04T09:09:22.596Z,5.40
2018-11-04T09:11:57.279Z,5.23
2018-11-04T09:14:39.176Z,6.80
2018-11-04T09:17:14.742Z,6.03
2018-11-04T09:19:49.456Z,5.40
2018-11-04T09:22:24.735Z,5.50
2018-11-04T09:24:59.746Z,6.23
2018-11-04T09:27:35.527Z,5.30
2018-11-04T09:30:13.629Z,6.00
2018-11-04T09:32:48.988Z,4.57
2018-11-04T09:35:24.364Z,5.83
2018-11-04T09:38:05.871Z,5.90
2018-11-04T09:40:41.508Z,5.40
2018-11-04T09:43:16.728Z,5.27
2018-11-04T09:45:51.380Z,5.43
2018-11-04T09:48:26.504Z,5.40
2018-11-04T09:51:01.949Z,6.07
2018-11-04T09:53:37.004Z,5.47
2018-11-04T09:56:14.275Z,5.27
2018-11-04T09:58:49.528Z,6.07
2018-11-04T10:01:24.298Z,5.47
2018-11-04T10:03:59.030Z,7.00
2018-11-04T10:06:34.231Z,5.50
2018-11-04T10:09:10.737Z,5.43
2018-11-04T10:11:45.871Z,5.77
2018-11-04T10:14:20.611Z,4.93
2018-11-04T10:16:56.060Z,6.00
2018-11-04T10:19:30.975Z,5.87
2018-11-04T10:22:06.115Z,5.90
2018-11-04T10:24:43.420Z,5.43
2018-11-04T10:27:18.908Z,5.43
2018-11-04T10:29:54.560Z,5.57
2018-11-04T10:32:29.139Z,5.47
2018-11-04T10:35:05.264Z,6.70
2018-11-04T10:37:40.588Z,5.90
2018-11-04T10:40:15.606Z,6.47
2018-11-04T10:42:50.753Z,6.03
2018-11-04T10:45:26.303Z,5.73
2018-11-04T10:48:02.221Z,4.80
2018-11-04T10:53:18.428Z,5.70
2018-11-04T10:55:53.430Z,5.70
2018-11-04T10:58:28.105Z,5.50
2018-11-04T11:01:08.830Z,5.07
2018-11-04T11:03:44.455Z,5.33
2018-11-04T11:06:19.598Z,4.83
2018-11-04T11:08:57.023Z,4.90
2018-11-04T11:12:56.330Z,5.70
2018-11-04T11:15:31.176Z,5.93
2018-11-04T11:18:06.432Z,4.80
2018-11-04T11:23:24.515Z,5.87
2018-11-04T11:25:59.381Z,5.13
2018-11-04T11:28:35.035Z,5.23
2018-11-04T11:31:10.532Z,6.70
2018-11-04T11:33:52.957Z,5.57
2018-11-04T11:36:28.169Z,5.87
2018-11-04T11:39:02.829Z,5.83
2018-11-04T11:41:37.795Z,5.67
2018-11-04T11:44:12.970Z,5.50
2018-11-04T11:46:48.514Z,5.33
2018-11-04T11:49:25.104Z,5.20
2018-11-04T11:52:00.672Z,6.07
2018-11-04T11:54:35.431Z,6.07
2018-11-04T11:57:09.923Z,5.43
2018-11-04T11:59:45.418Z,6.43
2018-11-04T12:02:20.711Z,5.77
2018-11-04T12:04:55.073Z,5.20
2018-11-04T12:07:30.302Z,5.27
2018-11-04T12:10:07.042Z,6.43
2018-11-04T12:12:42.222Z,4.77
2018-11-04T12:15:16.596Z,5.47
2018-11-04T12:17:51.706Z,4.37
2018-11-04T12:20:26.130Z,4.70
2018-11-04T12:23:02.012Z,4.90
2018-11-04T12:25:36.479Z,5.60
2018-11-04T12:28:11.604Z,5.47
2018-11-04T12:30:46.030Z,5.50
2018-11-04T12:33:20.371Z,5.33
2018-11-04T12:35:54.871Z,5.33
2018-11-04T12:38:29.975Z,5.57
2018-11-04T12:41:04.210Z,6.33
2018-11-04T12:43:39.159Z,5.70
2018-11-04T12:46:19.988Z,6.13
2018-11-04T12:48:55.763Z,5.27
2018-11-04T12:51:30.877Z,4.73
2018-11-04T12:56:36.156Z,4.63
2018-11-04T12:59:11.300Z,4.97
2018-11-04T13:01:45.927Z,5.20
2018-11-04T13:11:19.623Z,4.60
2018-11-04T13:13:54.079Z,4.70
2018-11-04T13:16:29.160Z,4.93
2018-11-04T13:19:04.631Z,5.20
2018-11-04T13:21:38.991Z,5.53
2018-11-04T13:24:14.275Z,4.93
2018-11-04T13:26:49.133Z,5.40
2018-11-04T13:29:24.096Z,5.03
2018-11-04T13:31:58.599Z,5.87
2018-11-04T13:34:32.987Z,5.00
2018-11-04T13:37:07.704Z,5.10
2018-11-04T13:39:42.093Z,5.27
2018-11-04T13:42:17.259Z,4.70
2018-11-04T13:44:51.611Z,5.77
2018-11-04T13:47:26.520Z,4.63
2018-11-04T13:50:01.584Z,5.17
2018-11-04T13:52:36.619Z,4.87
2018-11-04T13:55:11.092Z,5.60
2018-11-04T13:57:46.247Z,6.13
2018-11-04T14:00:20.662Z,5.60
2018-11-04T14:02:55.996Z,5.97
2018-11-04T14:05:31.421Z,4.80
2018-11-04T14:08:05.958Z,6.00
2018-11-04T14:10:41.421Z,5.53
2018-11-04T14:13:15.913Z,5.07
2018-11-04T14:15:52.348Z,5.13
2018-11-04T14:18:27.731Z,5.10
2018-11-04T14:21:02.391Z,4.70
2018-11-04T14:23:38.118Z,6.33
2018-11-04T14:26:12.651Z,5.67
2018-11-04T14:28:47.884Z,5.77
2018-11-04T14:31:23.415Z,5.90
2018-11-04T14:33:57.700Z,6.23
2018-11-04T14:36:32.547Z,6.43
2018-11-04T14:39:08.191Z,6.07
2018-11-04T14:41:42.619Z,6.30
2018-11-04T14:44:17.816Z,5.43
2018-11-04T14:46:52.869Z,5.87
2018-11-04T14:49:28.191Z,5.70
2018-11-04T14:52:03.556Z,6.23
2018-11-04T14:54:38.085Z,6.47
2018-11-04T14:57:13.907Z,5.90
2018-11-04T14:59:48.397Z,5.40
2018-11-04T15:02:22.892Z,5.60
2018-11-04T15:04:57.236Z,5.70
2018-11-04T15:07:32.566Z,6.67
2018-11-04T15:10:09.612Z,6.80
2018-11-04T15:12:44.459Z,6.30
2018-11-04T15:15:19.035Z,6.00
2018-11-04T15:18:01.857Z,7.70
2018-11-04T15:20:36.151Z,5.80
2018-11-04T15:23:13.573Z,6.13
2018-11-04T15:25:48.037Z,5.70
2018-11-04T15:28:23.372Z,6.30
2018-11-04T15:30:57.800Z,7.03
2018-11-04T15:33:32.472Z,6.30
2018-11-04T15:36:07.834Z,5.83
2018-11-04T15:38:43.166Z,5.97
2018-11-04T15:41:18.015Z,6.87
2018-11-04T15:43:53.251Z,5.80
2018-11-04T15:46:28.951Z,5.57
2018-11-04T15:49:04.558Z,5.80
2018-11-04T15:51:40.880Z,6.30
2018-11-04T15:54:15.688Z,5.57
2018-11-04T15:56:51.483Z,5.80
2018-11-04T15:59:27.411Z,5.60
2018-11-04T16:02:02.140Z,5.10
2018-11-04T16:04:44.547Z,6.10
2018-11-04T16:07:13.280Z,6.00
2018-11-04T16:09:48.723Z,5.80
2018-11-04T16:12:23.393Z,6.63
2018-11-04T16:14:58.305Z,6.77
2018-11-04T16:17:34.213Z,6.40
2018-11-04T16:22:56.065Z,7.00
2018-11-04T16:25:32.486Z,5.87
2018-11-04T16:28:09.103Z,6.10
2018-11-04T16:30:45.875Z,11.07
2018-11-04T16:33:23.198Z,12.23
2018-11-04T16:35:59.299Z,6.50
2018-11-04T16:38:35.871Z,6.30
2018-11-04T16:41:10.997Z,5.60
2018-11-04T16:43:46.623Z,6.30
2018-11-04T16:46:23.611Z,7.07
2018-11-04T16:49:00.929Z,6.87
2018-11-04T16:51:38.123Z,6.43
2018-11-04T16:54:13.516Z,5.93
2018-11-04T16:56:48.979Z,6.70
2018-11-04T16:59:27.193Z,6.10
2018-11-04T17:02:02.675Z,6.67
2018-11-04T17:04:37.489Z,5.77
2018-11-04T17:07:12.487Z,6.70
2018-11-04T17:09:48.356Z,6.40
2018-11-04T17:12:25.364Z,6.30
2018-11-04T17:18:06.265Z,6.30
2018-11-04T17:20:41.771Z,5.67
2018-11-04T17:23:21.116Z,6.70
2018-11-04T17:25:56.259Z,6.30
2018-11-04T17:28:32.631Z,7.10
2018-11-04T17:31:07.206Z,6.27
2018-11-04T18:07:49.314Z,8.63
2018-11-04T18:10:25.739Z,7.50
2018-11-04T18:13:03.116Z,8.03
2018-11-04T18:15:38.175Z,7.77
2018-11-04T18:18:14.938Z,7.40
2018-11-04T18:20:49.476Z,7.50
2018-11-04T18:23:25.821Z,6.80
2018-11-04T18:26:01.264Z,8.50
2018-11-04T18:28:37.653Z,7.47
2018-11-04T18:31:12.443Z,8.47
2018-11-04T18:33:47.947Z,7.70
2018-11-04T18:36:23.395Z,7.20
2018-11-04T18:38:58.017Z,7.53
2018-11-04T18:41:32.415Z,8.17
2018-11-04T18:44:08.296Z,7.77
2018-11-04T18:46:44.305Z,7.30
2018-11-04T18:49:20.675Z,7.90
2018-11-04T18:51:57.195Z,8.40
2018-11-04T18:54:39.317Z,8.47
2018-11-04T18:57:14.211Z,9.20
2018-11-04T18:59:49.210Z,9.90
2018-11-04T19:02:24.152Z,8.57
2018-11-04T19:04:59.387Z,8.77
2018-11-04T19:07:35.635Z,8.67
2018-11-04T19:10:13.764Z,9.00
2018-11-04T19:12:49.439Z,8.63
2018-11-04T19:15:23.869Z,8.23
2018-11-04T19:18:06.458Z,8.70
2018-11-04T19:20:40.969Z,8.30
2018-11-04T19:23:26.351Z,8.60
2018-11-04T19:26:02.871Z,9.60
2018-11-04T19:28:38.887Z,15.93
2018-11-04T19:31:13.369Z,11.57
2018-11-04T19:33:48.760Z,9.77
2018-11-04T19:36:23.322Z,10.03
2018-11-04T19:38:57.846Z,9.87
2018-11-04T19:41:33.940Z,10.70
2018-11-04T19:44:09.519Z,10.07
2018-11-04T19:46:45.984Z,9.33
2018-11-04T19:49:22.567Z,9.23
2018-11-04T19:51:57.330Z,9.23
2018-11-04T19:54:38.579Z,11.23
2018-11-04T19:57:13.344Z,10.40
2018-11-04T19:59:49.688Z,9.77
2018-11-04T20:02:25.524Z,9.40
2018-11-04T20:05:00.480Z,10.07
2018-11-04T20:13:20.608Z,10.13
2018-11-04T20:16:08.692Z,9.50
2018-11-04T20:18:48.617Z,9.37
2018-11-04T20:21:23.760Z,10.53
2018-11-04T20:24:13.205Z,10.17
2018-11-04T20:26:49.263Z,9.80
2018-11-04T20:29:25.217Z,9.63
2018-11-04T20:32:09.595Z,9.77
2018-11-04T20:34:45.256Z,9.10
2018-11-04T20:37:21.202Z,9.37
2018-11-04T20:40:02.041Z,9.20
2018-11-04T20:42:38.983Z,9.57
2018-11-04T20:45:16.908Z,9.83
2018-11-04T20:47:59.968Z,9.00
2018-11-04T20:50:44.190Z,10.60
2018-11-04T20:53:18.843Z,9.83
2018-11-04T20:58:42.249Z,9.87
2018-11-04T21:01:17.855Z,10.17
2018-11-04T21:03:53.470Z,9.87
2018-11-04T21:06:34.274Z,9.70
2018-11-04T21:09:13.060Z,9.10
2018-11-04T21:11:49.342Z,8.73
2018-11-04T21:14:24.981Z,10.30
2018-11-04T21:17:01.063Z,9.43
2018-11-04T21:19:37.109Z,10.63
2018-11-04T21:22:12.111Z,9.97
2018-11-04T21:24:48.710Z,9.13
2018-11-04T21:27:23.771Z,10.57
2018-11-04T21:30:00.815Z,9.60
2018-11-04T21:32:37.152Z,9.87
2018-11-04T21:35:11.795Z,9.33
2018-11-04T21:37:47.035Z,10.00
2018-11-04T21:40:22.044Z,9.90
2018-11-04T21:42:57.499Z,9.50
2018-11-04T21:45:32.336Z,9.87
2018-11-04T21:48:07.668Z,10.33
2018-11-04T21:50:43.053Z,11.20
2018-11-04T21:54:42.959Z,11.53
2018-11-04T21:57:18.740Z,9.80
2018-11-04T21:59:54.122Z,11.00
2018-11-04T22:02:29.284Z,10.90
2018-11-04T22:05:05.260Z,10.13
2018-11-04T22:07:42.241Z,11.37
2018-11-04T22:10:18.138Z,11.13
2018-11-04T22:20:01.976Z,10.20
2018-11-04T22:22:37.627Z,10.87
2018-11-04T22:25:12.915Z,10.40
2018-11-04T22:27:55.712Z,10.20
2018-11-04T22:30:31.015Z,11.10
2018-11-04T22:33:05.908Z,11.60
2018-11-04T22:35:41.352Z,11.17
2018-11-04T22:38:16.491Z,10.70
2018-11-04T22:40:51.475Z,11.30
2018-11-04T22:43:27.113Z,11.37
2018-11-04T22:46:02.056Z,11.03
2018-11-04T22:48:37.407Z,11.33
2018-11-04T22:51:12.124Z,9.23
2018-11-04T22:53:46.832Z,11.70
2018-11-04T22:56:21.772Z,11.83
2018-11-04T22:58:57.411Z,10.40
2018-11-04T23:01:33.117Z,11.30
2018-11-04T23:04:08.118Z,10.67
2018-11-04T23:08:08.482Z,11.40
2018-11-04T23:10:44.026Z,11.70
2018-11-04T23:13:19.216Z,12.37
2018-11-04T23:20:04.416Z,11.27
2018-11-04T23:22:39.628Z,11.10
2018-11-04T23:25:15.641Z,11.77
2018-11-04T23:27:56.288Z,11.40
2018-11-04T23:30:31.424Z,10.67
2018-11-04T23:35:59.972Z,10.43
2018-11-04T23:38:35.652Z,11.97
2018-11-04T23:41:10.474Z,11.53
2018-11-04T23:43:46.304Z,11.93
2018-11-04T23:46:24.467Z,11.90
2018-11-04T23:48:59.888Z,11.50
2018-11-04T23:51:34.827Z,13.17
2018-11-04T23:54:10.100Z,11.20
2018-11-04T23:56:44.904Z,12.90
2018-11-04T23:59:20.399Z,11.87
